sensor_id;sensor_type;location;lat;lon;timestamp;P1;durP1;ratioP1;P2;durP2;ratioP2
77278;SDS011;66332;50.436;15.378;2023-03-03T05:03:10;29.02;;;11.70;;
77278;SDS011;66332;50.436;15.378;2023-03-03T05:07:52;28.63;;;11.82;;
77278;SDS011;66332;50.436;15.378;2023-03-03T05:12:32;27.08;;;11.77;;
77278;SDS011;66332;50.436;15.378;2023-03-03T05:17:13;29.73;;;12.23;;
77278;SDS011;66332;50.436;15.378;2023-03-03T05:21:54;28.33;;;12.00;;
77278;SDS011;66332;50.436;15.378;2023-03-03T05:26:37;27.67;;;12.48;;
77278;SDS011;66332;50.436;15.378;2023-03-03T05:31:19;24.73;;;10.38;;
77278;SDS011;66332;50.436;15.378;2023-03-03T05:36:00;30.33;;;12.18;;
77278;SDS011;66332;50.436;15.378;2023-03-03T05:40:41;29.20;;;11.73;;
77278;SDS011;66332;50.436;15.378;2023-03-03T05:45:23;32.85;;;12.38;;
77278;SDS011;66332;50.436;15.378;2023-03-03T05:50:04;30.05;;;13.15;;
77278;SDS011;66332;50.436;15.378;2023-03-03T05:54:45;25.77;;;12.25;;
77278;SDS011;66332;50.436;15.378;2023-03-03T05:59:26;30.40;;;12.90;;
77278;SDS011;66332;50.436;15.378;2023-03-03T06:04:07;24.05;;;10.65;;
77278;SDS011;66332;50.436;15.378;2023-03-03T06:08:48;26.52;;;12.55;;
77278;SDS011;66332;50.436;15.378;2023-03-03T06:13:28;29.10;;;11.82;;
77278;SDS011;66332;50.436;15.378;2023-03-03T06:18:09;30.73;;;12.60;;
77278;SDS011;66332;50.436;15.378;2023-03-03T06:22:50;29.40;;;12.48;;
77278;SDS011;66332;50.436;15.378;2023-03-03T06:27:32;31.63;;;13.98;;
77278;SDS011;66332;50.436;15.378;2023-03-03T06:32:13;37.90;;;14.18;;
77278;SDS011;66332;50.436;15.378;2023-03-03T06:36:54;32.33;;;13.52;;
77278;SDS011;66332;50.436;15.378;2023-03-03T06:41:36;32.53;;;14.23;;
77278;SDS011;66332;50.436;15.378;2023-03-03T06:46:17;30.70;;;13.48;;
77278;SDS011;66332;50.436;15.378;2023-03-03T06:50:59;32.42;;;14.45;;
77278;SDS011;66332;50.436;15.378;2023-03-03T06:55:41;33.63;;;14.60;;
77278;SDS011;66332;50.436;15.378;2023-03-03T07:00:25;36.17;;;15.45;;
77278;SDS011;66332;50.436;15.378;2023-03-03T07:05:14;33.78;;;12.60;;
77278;SDS011;66332;50.436;15.378;2023-03-03T07:09:56;36.03;;;14.05;;
77278;SDS011;66332;50.436;15.378;2023-03-03T07:14:47;35.65;;;14.25;;
77278;SDS011;66332;50.436;15.378;2023-03-03T07:19:35;34.10;;;16.48;;
77278;SDS011;66332;50.436;15.378;2023-03-03T07:24:26;37.17;;;16.02;;
77278;SDS011;66332;50.436;15.378;2023-03-03T07:29:23;35.40;;;15.88;;
77278;SDS011;66332;50.436;15.378;2023-03-03T07:34:23;35.10;;;16.35;;
77278;SDS011;66332;50.436;15.378;2023-03-03T07:39:26;36.17;;;16.75;;
77278;SDS011;66332;50.436;15.378;2023-03-03T07:44:13;35.50;;;16.33;;
77278;SDS011;66332;50.436;15.378;2023-03-03T07:49:01;41.25;;;17.05;;
77278;SDS011;66332;50.436;15.378;2023-03-03T07:59:24;37.45;;;16.85;;
77278;SDS011;66332;50.436;15.378;2023-03-03T08:04:15;41.08;;;18.10;;
77278;SDS011;66332;50.436;15.378;2023-03-03T08:09:18;42.33;;;17.15;;
77278;SDS011;66332;50.436;15.378;2023-03-03T08:14:09;38.03;;;16.83;;
77278;SDS011;66332;50.436;15.378;2023-03-03T08:18:54;37.15;;;15.50;;
77278;SDS011;66332;50.436;15.378;2023-03-03T08:23:41;40.83;;;18.42;;
77278;SDS011;66332;50.436;15.378;2023-03-03T08:28:22;35.92;;;17.00;;
77278;SDS011;66332;50.436;15.378;2023-03-03T08:33:03;43.47;;;18.40;;
77278;SDS011;66332;50.436;15.378;2023-03-03T08:37:44;41.53;;;18.73;;
77278;SDS011;66332;50.436;15.378;2023-03-03T08:42:25;41.40;;;18.60;;
77278;SDS011;66332;50.436;15.378;2023-03-03T08:47:06;39.25;;;18.33;;
77278;SDS011;66332;50.436;15.378;2023-03-03T08:51:47;40.25;;;17.58;;
77278;SDS011;66332;50.436;15.378;2023-03-03T08:56:27;34.22;;;14.65;;
77278;SDS011;66332;50.436;15.378;2023-03-03T09:01:08;38.00;;;18.02;;
77278;SDS011;66332;50.436;15.378;2023-03-03T09:05:49;40.95;;;16.38;;
77278;SDS011;66332;50.436;15.378;2023-03-03T09:10:30;37.40;;;16.13;;
77278;SDS011;66332;50.436;15.378;2023-03-03T09:19:54;40.28;;;18.48;;
77278;SDS011;66332;50.436;15.378;2023-03-03T09:24:40;34.80;;;16.85;;
77278;SDS011;66332;50.436;15.378;2023-03-03T09:29:23;35.03;;;16.42;;
77278;SDS011;66332;50.436;15.378;2023-03-03T09:34:11;32.97;;;15.13;;
77278;SDS011;66332;50.436;15.378;2023-03-03T09:38:59;35.58;;;15.95;;
77278;SDS011;66332;50.436;15.378;2023-03-03T09:43:59;35.53;;;15.50;;
77278;SDS011;66332;50.436;15.378;2023-03-03T09:55:09;33.08;;;16.02;;
77278;SDS011;66332;50.436;15.378;2023-03-03T10:10:01;31.85;;;15.43;;
77278;SDS011;66332;50.436;15.378;2023-03-03T10:35:01;28.92;;;13.10;;
77278;SDS011;66332;50.436;15.378;2023-03-03T10:40:10;26.60;;;13.32;;
77278;SDS011;66332;50.436;15.378;2023-03-03T10:55:32;25.15;;;11.20;;
77278;SDS011;66332;50.436;15.378;2023-03-03T11:14:42;22.90;;;9.60;;
77278;SDS011;66332;50.436;15.378;2023-03-03T11:39:01;20.20;;;8.45;;
77278;SDS011;66332;50.436;15.378;2023-03-03T11:43:45;20.35;;;8.95;;
77278;SDS011;66332;50.436;15.378;2023-03-03T11:48:38;21.05;;;8.30;;
77278;SDS011;66332;50.436;15.378;2023-03-03T11:53:49;17.02;;;7.75;;
77278;SDS011;66332;50.436;15.378;2023-03-03T11:58:41;18.95;;;8.25;;
77278;SDS011;66332;50.436;15.378;2023-03-03T12:08:36;17.75;;;8.25;;
77278;SDS011;66332;50.436;15.378;2023-03-03T12:13:43;15.93;;;7.60;;
77278;SDS011;66332;50.436;15.378;2023-03-03T12:18:45;15.80;;;7.10;;
77278;SDS011;66332;50.436;15.378;2023-03-03T12:28:41;18.25;;;7.93;;
77278;SDS011;66332;50.436;15.378;2023-03-03T12:38:39;19.65;;;8.95;;
77278;SDS011;66332;50.436;15.378;2023-03-03T12:48:39;18.50;;;8.15;;
77278;SDS011;66332;50.436;15.378;2023-03-03T13:03:39;19.77;;;8.80;;
77278;SDS011;66332;50.436;15.378;2023-03-03T13:13:36;17.38;;;7.60;;
77278;SDS011;66332;50.436;15.378;2023-03-03T13:33:19;14.98;;;7.03;;
77278;SDS011;66332;50.436;15.378;2023-03-03T13:38:02;17.20;;;7.65;;
77278;SDS011;66332;50.436;15.378;2023-03-03T13:52:28;18.75;;;7.85;;
77278;SDS011;66332;50.436;15.378;2023-03-03T14:07:12;18.48;;;7.30;;
77278;SDS011;66332;50.436;15.378;2023-03-03T14:12:24;16.80;;;7.60;;
77278;SDS011;66332;50.436;15.378;2023-03-03T14:17:27;17.15;;;8.02;;
77278;SDS011;66332;50.436;15.378;2023-03-03T14:22:17;16.92;;;7.45;;
77278;SDS011;66332;50.436;15.378;2023-03-03T14:27:05;15.48;;;6.57;;
77278;SDS011;66332;50.436;15.378;2023-03-03T14:32:19;16.23;;;7.15;;
77278;SDS011;66332;50.436;15.378;2023-03-03T14:37:25;15.38;;;7.32;;
77278;SDS011;66332;50.436;15.378;2023-03-03T15:01:39;18.00;;;7.60;;
77278;SDS011;66332;50.436;15.378;2023-03-03T15:06:28;15.07;;;7.07;;
77278;SDS011;66332;50.436;15.378;2023-03-03T15:11:27;16.13;;;7.43;;
77278;SDS011;66332;50.436;15.378;2023-03-03T15:21:02;16.55;;;8.05;;
77278;SDS011;66332;50.436;15.378;2023-03-03T15:41:36;14.05;;;7.05;;
77278;SDS011;66332;50.436;15.378;2023-03-03T15:56:38;15.32;;;6.72;;
77278;SDS011;66332;50.436;15.378;2023-03-03T16:26:44;17.92;;;7.13;;
77278;SDS011;66332;50.436;15.378;2023-03-03T16:31:35;16.23;;;6.68;;
77278;SDS011;66332;50.436;15.378;2023-03-03T16:46:46;17.95;;;7.10;;
77278;SDS011;66332;50.436;15.378;2023-03-03T16:51:40;18.35;;;7.25;;
77278;SDS011;66332;50.436;15.378;2023-03-03T16:56:42;19.58;;;8.40;;
77278;SDS011;66332;50.436;15.378;2023-03-03T17:31:40;19.70;;;8.10;;
77278;SDS011;66332;50.436;15.378;2023-03-03T17:36:45;23.92;;;10.32;;
77278;SDS011;66332;50.436;15.378;2023-03-03T17:46:45;18.98;;;8.70;;
77278;SDS011;66332;50.436;15.378;2023-03-03T17:56:22;18.23;;;7.57;;
77278;SDS011;66332;50.436;15.378;2023-03-03T18:11:11;19.40;;;7.72;;
77278;SDS011;66332;50.436;15.378;2023-03-03T18:25:51;18.13;;;7.75;;
77278;SDS011;66332;50.436;15.378;2023-03-03T18:35:44;19.73;;;8.32;;
77278;SDS011;66332;50.436;15.378;2023-03-03T18:40:28;29.42;;;12.00;;
77278;SDS011;66332;50.436;15.378;2023-03-03T19:00:33;19.27;;;7.70;;
77278;SDS011;66332;50.436;15.378;2023-03-03T19:09:59;20.73;;;8.05;;
77278;SDS011;66332;50.436;15.378;2023-03-03T19:14:45;20.55;;;7.95;;
77278;SDS011;66332;50.436;15.378;2023-03-03T19:19:28;22.67;;;9.35;;
77278;SDS011;66332;50.436;15.378;2023-03-03T19:34:27;21.67;;;8.73;;
77278;SDS011;66332;50.436;15.378;2023-03-03T19:59:48;23.27;;;9.00;;
77278;SDS011;66332;50.436;15.378;2023-03-03T20:09:40;19.25;;;8.30;;
77278;SDS011;66332;50.436;15.378;2023-03-03T20:14:34;18.85;;;7.97;;
77278;SDS011;66332;50.436;15.378;2023-03-03T20:24:55;17.80;;;7.93;;
77278;SDS011;66332;50.436;15.378;2023-03-03T20:34:57;21.30;;;8.55;;
77278;SDS011;66332;50.436;15.378;2023-03-03T20:59:57;24.90;;;9.85;;
77278;SDS011;66332;50.436;15.378;2023-03-03T21:04:42;23.25;;;9.63;;
77278;SDS011;66332;50.436;15.378;2023-03-03T21:09:28;20.52;;;8.73;;
77278;SDS011;66332;50.436;15.378;2023-03-03T21:14:19;19.90;;;7.68;;
77278;SDS011;66332;50.436;15.378;2023-03-03T21:19:21;23.35;;;9.43;;
77278;SDS011;66332;50.436;15.378;2023-03-03T21:24:05;23.55;;;10.00;;
77278;SDS011;66332;50.436;15.378;2023-03-03T21:28:57;22.75;;;9.52;;
77278;SDS011;66332;50.436;15.378;2023-03-03T21:38:33;18.38;;;7.38;;
77278;SDS011;66332;50.436;15.378;2023-03-03T21:43:31;20.75;;;7.45;;
77278;SDS011;66332;50.436;15.378;2023-03-03T21:48:20;21.55;;;7.78;;
77278;SDS011;66332;50.436;15.378;2023-03-03T21:53:01;21.55;;;8.45;;
77278;SDS011;66332;50.436;15.378;2023-03-03T21:57:42;22.50;;;8.77;;
77278;SDS011;66332;50.436;15.378;2023-03-03T22:02:23;22.98;;;9.38;;
77278;SDS011;66332;50.436;15.378;2023-03-03T22:07:04;19.77;;;8.63;;
77278;SDS011;66332;50.436;15.378;2023-03-03T22:11:45;23.58;;;9.30;;
77278;SDS011;66332;50.436;15.378;2023-03-03T22:16:26;19.05;;;8.65;;
77278;SDS011;66332;50.436;15.378;2023-03-03T22:21:07;17.17;;;7.15;;
77278;SDS011;66332;50.436;15.378;2023-03-03T22:25:48;31.65;;;10.85;;
77278;SDS011;66332;50.436;15.378;2023-03-03T22:30:29;24.45;;;9.82;;
77278;SDS011;66332;50.436;15.378;2023-03-03T22:35:10;20.38;;;8.15;;
77278;SDS011;66332;50.436;15.378;2023-03-03T22:39:50;25.50;;;9.10;;
77278;SDS011;66332;50.436;15.378;2023-03-03T22:44:31;23.15;;;8.88;;
77278;SDS011;66332;50.436;15.378;2023-03-03T22:49:13;21.90;;;9.15;;
77278;SDS011;66332;50.436;15.378;2023-03-03T22:53:54;23.10;;;8.57;;
